createdAt,value
2019-04-23T00:00:10.270Z,7.07
2019-04-23T00:05:48.051Z,9.80
2019-04-23T00:08:39.729Z,8.17
2019-04-23T00:14:15.105Z,8.17
2019-04-23T00:17:04.503Z,8.83
2019-04-23T00:19:45.102Z,6.20
2019-04-23T00:28:45.557Z,6.37
2019-04-23T00:31:34.991Z,9.80
2019-04-23T00:34:30.804Z,6.83
2019-04-23T00:37:09.866Z,7.53
2019-04-23T00:39:51.177Z,8.43
2019-04-23T00:42:40.618Z,6.27
2019-04-23T00:45:16.779Z,7.40
2019-04-23T00:48:02.224Z,13.63
2019-04-23T00:50:52.826Z,8.45
2019-04-23T00:53:32.871Z,6.95
2019-04-23T00:59:08.868Z,9.30
2019-04-23T01:01:55.773Z,8.13
2019-04-23T01:04:41.783Z,7.83
2019-04-23T01:07:24.656Z,7.40
2019-04-23T01:13:14.441Z,10.17
2019-04-23T01:16:00.758Z,9.47
2019-04-23T01:19:24.829Z,9.00
2019-04-23T01:21:32.691Z,10.60
2019-04-23T01:33:43.549Z,7.63
2019-04-23T01:36:34.691Z,7.10
2019-04-23T01:39:06.223Z,9.20
2019-04-23T01:41:57.991Z,11.00
2019-04-23T01:44:42.746Z,8.75
2019-04-23T01:47:28.068Z,10.48
2019-04-23T01:50:14.350Z,7.03
2019-04-23T01:52:59.271Z,7.30
2019-04-23T01:56:01.278Z,9.97
2019-04-23T02:01:17.555Z,10.10
2019-04-23T02:04:03.549Z,11.57
2019-04-23T02:06:44.954Z,7.67
2019-04-23T02:12:27.735Z,11.73
2019-04-23T02:15:12.123Z,8.80
2019-04-23T02:17:58.622Z,8.70
2019-04-23T02:20:43.030Z,8.67
2019-04-23T02:26:43.543Z,11.27
2019-04-23T02:29:32.653Z,10.15
2019-04-23T02:32:09.422Z,8.77
2019-04-23T02:37:54.143Z,11.23
2019-04-23T02:40:37.992Z,10.23
2019-04-23T02:43:16.336Z,9.83
2019-04-23T02:54:38.067Z,10.85
2019-04-23T02:57:13.414Z,9.60
2019-04-23T03:08:02.218Z,8.50
2019-04-23T03:10:59.656Z,9.55
2019-04-23T03:13:48.270Z,12.53
2019-04-23T03:19:45.813Z,9.63
2019-04-23T03:28:55.723Z,10.50
2019-04-23T03:40:06.081Z,11.20
2019-04-23T03:42:42.360Z,10.60
2019-04-23T03:51:03.202Z,10.13
2019-04-23T03:57:00.270Z,10.83
2019-04-23T04:04:53.533Z,10.48
2019-04-23T04:08:02.563Z,11.03
2019-04-23T04:10:40.984Z,11.67
2019-04-23T04:13:22.802Z,11.70
2019-04-23T04:16:04.944Z,12.63
2019-04-23T04:19:09.019Z,12.47
2019-04-23T04:21:33.784Z,12.00
2019-04-23T04:27:08.037Z,10.93
2019-04-23T04:35:24.780Z,11.63
2019-04-23T04:38:24.936Z,10.47
2019-04-23T04:41:04.302Z,12.68
2019-04-23T04:43:50.869Z,11.17
2019-04-23T04:46:43.842Z,12.53
2019-04-23T04:54:44.498Z,12.80
2019-04-23T05:00:32.908Z,15.23
2019-04-23T05:08:38.319Z,12.50
2019-04-23T05:11:28.823Z,11.93
2019-04-23T05:14:08.478Z,12.47
2019-04-23T05:16:54.734Z,13.25
2019-04-23T05:19:51.328Z,14.80
2019-04-23T05:22:20.885Z,11.85
2019-04-23T05:25:09.141Z,12.17
2019-04-23T05:28:02.766Z,11.63
2019-04-23T05:30:46.389Z,11.20
2019-04-23T05:33:29.785Z,10.95
2019-04-23T05:36:22.843Z,11.97
2019-04-23T05:41:43.673Z,14.90
2019-04-23T05:44:38.260Z,12.58
2019-04-23T05:47:25.585Z,14.98
2019-04-23T05:50:02.149Z,15.10
2019-04-23T05:53:07.840Z,16.57
2019-04-23T05:55:38.861Z,12.93
2019-04-23T05:58:22.145Z,16.53
2019-04-23T06:01:42.351Z,14.03
2019-04-23T06:07:08.394Z,12.93
2019-04-23T06:09:48.010Z,13.83
2019-04-23T06:12:31.409Z,14.10
2019-04-23T06:15:31.489Z,14.90
2019-04-23T06:18:26.671Z,13.17
2019-04-23T06:29:57.058Z,14.70
2019-04-23T06:32:42.857Z,13.93
2019-04-23T06:35:34.040Z,12.80
2019-04-23T06:41:11.728Z,15.93
2019-04-23T06:55:06.820Z,17.30
2019-04-23T06:58:10.554Z,17.77
2019-04-23T07:00:48.261Z,18.57
2019-04-23T07:03:38.862Z,12.17
2019-04-23T07:06:23.591Z,13.67
2019-04-23T07:11:51.380Z,13.43
2019-04-23T07:14:44.000Z,21.07
2019-04-23T07:17:21.174Z,14.97
2019-04-23T07:20:08.333Z,14.67
2019-04-23T07:22:43.151Z,18.63
2019-04-23T07:25:42.523Z,11.93
2019-04-23T07:28:26.151Z,14.13
2019-04-23T07:31:29.648Z,13.77
2019-04-23T07:34:01.182Z,13.53
2019-04-23T07:36:40.608Z,18.67
2019-04-23T07:40:10.978Z,14.30
2019-04-23T07:46:34.538Z,16.77
2019-04-23T07:49:20.229Z,14.40
2019-04-23T07:52:03.071Z,11.18
2019-04-23T07:57:49.368Z,14.50
2019-04-23T08:00:26.392Z,14.00
2019-04-23T08:02:57.794Z,13.27
2019-04-23T08:05:44.098Z,15.20
2019-04-23T08:08:33.313Z,12.73
2019-04-23T08:16:37.043Z,15.27
2019-04-23T08:19:34.950Z,16.52
2019-04-23T08:25:19.339Z,18.70
2019-04-23T08:28:13.566Z,13.37
2019-04-23T08:30:59.050Z,14.07
2019-04-23T08:33:57.344Z,13.40
2019-04-23T08:39:30.477Z,13.27
2019-04-23T08:42:28.687Z,13.37
2019-04-23T08:51:35.182Z,11.97
2019-04-23T08:54:08.817Z,9.90
2019-04-23T08:56:49.998Z,15.60
2019-04-23T08:59:38.905Z,13.83
2019-04-23T09:05:08.803Z,11.00
2019-04-23T09:10:46.203Z,12.80
2019-04-23T09:16:25.433Z,10.58
2019-04-23T09:19:14.635Z,14.85
2019-04-23T09:25:18.532Z,16.13
2019-04-23T09:27:53.281Z,11.15
2019-04-23T09:30:42.799Z,15.17
2019-04-23T09:37:00.289Z,14.27
2019-04-23T09:39:52.865Z,18.35
2019-04-23T09:45:48.632Z,11.20
2019-04-23T09:48:50.904Z,10.33
2019-04-23T09:51:38.633Z,12.93
2019-04-23T09:54:26.623Z,14.27
2019-04-23T09:57:17.122Z,19.87
2019-04-23T10:00:13.117Z,11.03
2019-04-23T10:02:41.124Z,11.97
2019-04-23T10:05:26.242Z,12.67
2019-04-23T10:08:05.135Z,10.53
2019-04-23T10:10:43.165Z,9.85
2019-04-23T10:13:27.726Z,17.70
2019-04-23T10:16:15.648Z,22.03
2019-04-23T10:19:00.656Z,16.97
2019-04-23T10:21:53.259Z,11.97
2019-04-23T10:24:28.162Z,21.30
2019-04-23T10:27:12.660Z,22.33
2019-04-23T10:29:57.051Z,12.67
2019-04-23T10:32:29.822Z,18.60
2019-04-23T10:35:22.249Z,15.93
2019-04-23T10:38:08.172Z,19.73
2019-04-23T10:41:06.585Z,16.13
2019-04-23T10:43:56.792Z,14.07
2019-04-23T10:47:40.325Z,17.67
2019-04-23T10:50:51.260Z,13.67
2019-04-23T10:54:03.110Z,32.40
2019-04-23T10:56:40.052Z,16.60
2019-04-23T10:59:06.531Z,15.47
2019-04-23T11:02:22.261Z,16.27
2019-04-23T11:13:21.013Z,13.13
2019-04-23T11:16:40.062Z,19.57
2019-04-23T11:21:48.020Z,18.33
2019-04-23T11:24:37.985Z,25.87
2019-04-23T11:27:24.479Z,16.87
2019-04-23T11:30:10.582Z,9.67
2019-04-23T11:32:53.762Z,14.30
2019-04-23T11:35:50.617Z,14.50
2019-04-23T11:38:48.646Z,14.67
2019-04-23T11:41:09.143Z,10.77
2019-04-23T11:44:17.306Z,11.97
2019-04-23T11:46:53.483Z,12.47
2019-04-23T11:52:41.668Z,15.17
2019-04-23T12:01:52.201Z,20.02
2019-04-23T12:04:48.510Z,14.87
2019-04-23T12:07:41.244Z,12.47
2019-04-23T12:17:15.377Z,16.87
2019-04-23T12:20:08.067Z,13.03
2019-04-23T12:22:54.458Z,15.13
2019-04-23T12:25:36.591Z,21.53
2019-04-23T12:28:27.714Z,22.80
2019-04-23T12:31:29.356Z,16.73
2019-04-23T12:33:52.282Z,16.93
2019-04-23T12:39:54.618Z,14.13
2019-04-23T12:42:44.424Z,14.00
2019-04-23T12:45:07.018Z,16.60
2019-04-23T12:47:43.687Z,12.93
2019-04-23T12:50:30.363Z,10.80
2019-04-23T12:52:45.177Z,17.83
2019-04-23T12:58:11.476Z,44.10
2019-04-23T13:00:45.802Z,17.12
2019-04-23T13:03:41.429Z,20.50
2019-04-23T13:06:24.865Z,18.63
2019-04-23T13:09:21.751Z,22.73
2019-04-23T13:11:57.808Z,15.97
2019-04-23T13:14:49.560Z,13.30
2019-04-23T13:17:38.050Z,26.03
2019-04-23T13:20:19.494Z,17.30
2019-04-23T13:23:01.732Z,22.43
2019-04-23T13:26:17.534Z,17.50
2019-04-23T13:29:13.854Z,19.93
2019-04-23T13:31:51.841Z,13.90
2019-04-23T13:34:37.113Z,14.67
2019-04-23T13:37:33.136Z,15.77
2019-04-23T13:40:10.919Z,15.03
2019-04-23T13:48:21.455Z,19.27
2019-04-23T13:53:59.059Z,14.50
2019-04-23T13:57:16.157Z,18.87
2019-04-23T13:59:38.944Z,20.03
2019-04-23T14:05:26.861Z,16.27
2019-04-23T14:08:13.252Z,26.50
2019-04-23T14:10:55.858Z,12.28
2019-04-23T14:13:55.597Z,26.70
2019-04-23T14:19:06.761Z,27.73
2019-04-23T14:22:18.467Z,18.17
2019-04-23T14:24:53.134Z,22.57
2019-04-23T14:27:37.143Z,31.40
2019-04-23T14:30:21.813Z,24.73
2019-04-23T14:33:02.775Z,16.00
2019-04-23T14:35:45.242Z,23.73
2019-04-23T14:41:23.468Z,21.67
2019-04-23T14:47:40.568Z,25.60
2019-04-23T14:50:29.399Z,23.30
2019-04-23T14:55:50.934Z,27.30
2019-04-23T15:01:27.307Z,21.07
2019-04-23T15:04:24.284Z,19.00
2019-04-23T15:07:00.714Z,18.97
2019-04-23T15:12:30.188Z,33.00
2019-04-23T15:17:58.137Z,52.60
2019-04-23T15:21:05.233Z,28.17
2019-04-23T15:28:50.983Z,21.93
2019-04-23T15:31:59.220Z,17.20
2019-04-23T15:34:41.337Z,26.57
2019-04-23T15:37:48.901Z,34.73
2019-04-23T15:40:08.075Z,21.93
2019-04-23T15:43:05.822Z,23.93
2019-04-23T15:45:48.978Z,31.00
2019-04-23T15:48:31.964Z,16.63
2019-04-23T15:51:19.881Z,22.33
2019-04-23T15:54:04.831Z,29.57
2019-04-23T15:56:50.039Z,19.47
2019-04-23T16:01:50.643Z,21.57
2019-04-23T16:04:35.717Z,28.77
2019-04-23T16:07:37.226Z,24.83
2019-04-23T16:10:38.075Z,21.43
2019-04-23T16:13:14.881Z,23.67
2019-04-23T16:15:57.984Z,28.45
2019-04-23T16:24:36.941Z,28.10
2019-04-23T16:27:21.526Z,22.53
2019-04-23T16:30:13.842Z,23.60
2019-04-23T16:33:13.075Z,19.10
2019-04-23T16:36:18.389Z,22.60
2019-04-23T16:39:07.507Z,23.87
2019-04-23T16:41:42.278Z,21.27
2019-04-23T16:44:44.631Z,22.60
2019-04-23T16:53:03.961Z,17.20
2019-04-23T16:58:45.845Z,16.87
2019-04-23T17:04:00.716Z,21.10
2019-04-23T17:06:48.440Z,18.63
2019-04-23T17:09:37.070Z,20.03
2019-04-23T17:12:38.813Z,21.75
2019-04-23T17:15:07.571Z,18.17
2019-04-23T17:17:56.193Z,16.07
2019-04-23T17:24:07.933Z,18.40
2019-04-23T17:29:10.947Z,18.33
2019-04-23T17:31:38.137Z,18.40
2019-04-23T17:37:30.697Z,18.12
2019-04-23T17:43:01.614Z,16.47
2019-04-23T17:46:07.883Z,23.53
2019-04-23T17:48:56.556Z,18.60
2019-04-23T17:51:31.195Z,17.13
2019-04-23T17:54:24.740Z,25.35
2019-04-23T18:00:16.073Z,19.57
2019-04-23T18:05:54.420Z,23.07
2019-04-23T18:08:32.926Z,22.03
2019-04-23T18:11:17.897Z,21.62
2019-04-23T18:14:02.592Z,23.60
2019-04-23T18:17:06.348Z,19.17
2019-04-23T18:19:29.855Z,17.37
2019-04-23T18:22:35.562Z,23.83
2019-04-23T18:28:25.983Z,23.27
2019-04-23T18:37:09.275Z,23.60
2019-04-23T18:42:41.078Z,13.90
2019-04-23T18:48:32.933Z,24.33
2019-04-23T18:51:40.491Z,20.27
2019-04-23T18:53:56.348Z,15.67
2019-04-23T18:57:09.335Z,23.97
2019-04-23T19:12:36.335Z,18.70
2019-04-23T19:23:25.743Z,20.93
2019-04-23T19:26:15.438Z,18.73
2019-04-23T19:28:55.770Z,20.53
2019-04-23T19:31:56.947Z,19.67
2019-04-23T19:34:55.927Z,19.67
2019-04-23T19:40:41.040Z,15.97
2019-04-23T19:43:37.131Z,19.67
2019-04-23T19:46:38.552Z,22.10
2019-04-23T19:49:13.169Z,17.00
2019-04-23T19:57:11.882Z,15.53
2019-04-23T20:00:14.094Z,19.47
2019-04-23T20:05:35.614Z,16.82
2019-04-23T20:08:22.513Z,21.10
2019-04-23T20:11:01.061Z,19.20
2019-04-23T20:13:50.689Z,18.63
2019-04-23T20:16:38.415Z,13.00
2019-04-23T20:19:23.953Z,12.93
2019-04-23T20:25:10.111Z,17.50
2019-04-23T20:30:54.457Z,15.77
2019-04-23T20:36:38.845Z,14.35
2019-04-23T20:50:10.165Z,13.23
2019-04-23T20:53:00.029Z,15.35
2019-04-23T20:56:01.829Z,12.70
2019-04-23T21:04:57.282Z,13.77
2019-04-23T21:07:50.407Z,20.13
2019-04-23T21:10:48.310Z,15.70
2019-04-23T21:18:57.152Z,15.53
2019-04-23T21:22:21.484Z,14.30
2019-04-23T21:25:14.378Z,15.50
2019-04-23T21:28:10.040Z,17.37
2019-04-23T21:31:00.858Z,17.30
2019-04-23T21:34:03.137Z,14.30
2019-04-23T21:36:46.015Z,16.97
2019-04-23T21:43:09.316Z,13.47
2019-04-23T21:46:14.563Z,18.70
2019-04-23T21:51:49.296Z,15.13
2019-04-23T21:54:12.402Z,13.73
2019-04-23T21:57:00.540Z,16.40
2019-04-23T21:59:55.485Z,16.83
2019-04-23T22:02:27.626Z,15.10
2019-04-23T22:05:32.523Z,14.50
2019-04-23T22:08:26.212Z,13.23
2019-04-23T22:11:31.000Z,14.33
2019-04-23T22:13:58.228Z,13.53
2019-04-23T22:16:41.021Z,14.43
2019-04-23T22:19:20.198Z,19.23
2019-04-23T22:22:16.225Z,14.10
2019-04-23T22:24:52.813Z,17.23
2019-04-23T22:27:24.246Z,19.17
2019-04-23T22:30:01.129Z,14.27
2019-04-23T22:35:22.021Z,15.65
2019-04-23T22:38:09.583Z,14.87
2019-04-23T22:40:28.794Z,14.53
2019-04-23T22:46:07.945Z,16.17
2019-04-23T22:51:55.337Z,22.20
2019-04-23T22:54:30.512Z,16.62
2019-04-23T22:57:09.581Z,16.70
2019-04-23T23:00:14.363Z,16.97
2019-04-23T23:03:11.581Z,23.97
2019-04-23T23:06:12.788Z,16.73
2019-04-23T23:08:55.223Z,17.07
2019-04-23T23:11:34.900Z,15.87
2019-04-23T23:17:02.267Z,17.10
2019-04-23T23:20:01.105Z,16.87
2019-04-23T23:22:43.820Z,15.60
2019-04-23T23:28:11.854Z,15.90
2019-04-23T23:31:07.006Z,17.75
2019-04-23T23:33:44.065Z,15.27
2019-04-23T23:39:18.129Z,15.75
2019-04-23T23:42:07.425Z,21.40
2019-04-23T23:47:33.955Z,18.90
2019-04-23T23:50:35.360Z,18.37
2019-04-23T23:53:11.758Z,21.43
2019-04-23T23:55:58.518Z,15.93
2019-04-23T23:58:57.006Z,16.15
